Aviation Digital Data Service (ADDS)

Output produced by TAFs form (1155 UTC 25 October 2014)
found at http://www.aviationweather.gov/adds/tafs/
 
KIAD 251130Z 2512/2618 32006KT P6SM SKC 
     FM251500 25008KT P6SM FEW250 
     FM261400 30010G18KT P6SM FEW150